< < Back
Terminal Aerodrome Forecast


Current Version              Previous Versions:   1  2  3  4  5  6  7  8  9  

Terminal Aerodrome Forecast

811
FTUS42 KTAE 242300
TAFVLD
TAF
KVLD 242332Z 2500/2524 24004KT P6SM SCT070
     FM250900 00000KT 4SM BR SCT004
     FM251500 25005KT P6SM SCT050 SCT250
     FM252100 25008KT P6SM VCTS BKN050CB=

Latest METAR

895
SAUS70 KWBC 260100 RRC
MTRVLD
METAR KVLD 260053Z 00000KT 10SM BKN095 28/23 A3003 RMK AO2 RAE23 SLP175
P0000 T02830233


USA.gov is the U.S. government's official web portal to all federal, state and local government web resources and services.